SBPA Airport Information

Runway Information
Runway 11 Length 7480 ft width 138 ft
Elevation 11 ft Threshold 0 ft Heading 91
Runway 29 Length 7480 ft Width 138 ft
Elevation 11 ft Threshold 0 ft Heading 271
Airport Frequencies
Type APP Name PALEGRE AP Frequency 119 MHZ
Type ATIS Name ATIS Frequency 127.85 MHZ
Type GND Name GND Frequency 121.9 MHZ
Type TWR Name PALEGRE TW Frequency 118.1 MHZ
Airport Navaids
Type NDB Name Pestana Frequency 395 KHZ
Type NDB Name Guaiba Frequency 345 KHZ
Type NDB Name Salgado Frequency 315 KHZ
Type NDB Name Porto Alegre Frequency 330 KHZ
Type VOR-DME Name Porto Alegre Frequency 114000 KHZ
Airport Weather Information & NOTAM
ADDS - METARS form results

(0124 UTC 26 February 2018)
 
METAR text: SBPA 260100Z 12007KT CAVOK 23/20 Q1015
Conditions at: SBPA (PORTO ALEGRE/SAL, BR) observed 0100 UTC 26 February 2018
Temperature: 23.0°C (73°F)
Dewpoint: 20.0°C (68°F) [RH = 83%]
Pressure (altimeter): 29.97 inches Hg (1015.0 mb)
Winds: from the ESE (120 degrees) at 8 MPH (7 knots; 3.6 m/s)
Visibility: 6 or more miles (10+ km)
Ceiling: ceiling and visibility are OK
Clouds: unknown
Weather: no significant weather observed at this time